Latest Weather Observations for Noonamah

IDD60901

Issued at 8:01 pm CST Monday 20 May 2019 (issued every 10 minutes, with the page automatically refreshed every 10 minutes)

About weather observations | Map of Darwin area stations | Latest observations for Darwin area | Other Formats
Station Details ID: 014314 Name: NOONAMAH AIRSTRIP Lat: -12.61 Lon: 131.05 Height: 17.5 m
Data from the previous 72 hours. | See also: Recent months at Noonamah
Date/Time
CST
Temp
°C
App
Temp
°C
Dew
Point
°C
Rel
Hum
%
Delta-T
°C
Wind Press
QNH
hPa
Press
MSL
hPa
Rain since
9am
mm
Dir  Spd
km/h
Gust
km/h
Spd
kts
Gust
kts
20/08:00pm 26.6 30.5 20.4 69 4.1 CALM 0 0 0 0 1012.5 1012.4 0.0
20/07:30pm 27.6 31.4 20.2 64 4.9 CALM 0 0 0 0 1012.2 1012.1 0.0
20/07:00pm 29.3 32.1 19.6 56 6.3 E 4 4 2 2 1011.9 1011.8 0.0
20/06:30pm 30.2 33.0 19.6 53 6.9 E 4 7 2 4 1011.7 1011.6 0.0
20/06:00pm 31.4 33.4 19.1 48 8.0 E 7 13 4 7 1011.5 1011.4 0.0
20/05:30pm 32.7 34.2 18.8 43 9.1 E 9 13 5 7 1011.4 1011.3 0.0
20/05:00pm 33.1 34.7 19.2 43 9.1 E 9 15 5 8 1011.2 1011.1 0.0
20/04:30pm 33.4 34.0 18.7 41 9.6 E 13 20 7 11 1011.1 1011.0 0.0
20/04:00pm 32.6 32.9 18.8 44 9.0 E 15 24 8 13 1011.0 1010.9 0.0
20/03:30pm 32.7 32.6 18.8 43 9.1 ESE 17 24 9 13 1011.1 1011.0 0.0
20/03:00pm 33.7 34.1 19.0 42 9.6 ENE 15 26 8 14 1011.3 1011.2 0.0
20/02:30pm 33.5 33.8 18.8 41 9.6 E 15 26 8 14 1011.7 1011.6 0.0
20/02:00pm 33.3 33.7 19.0 42 9.4 E 15 24 8 13 1012.1 1012.0 0.0
20/01:30pm 33.4 32.7 18.3 40 9.8 E 19 32 10 17 1012.6 1012.5 0.0
20/01:00pm 32.5 32.0 19.0 44 8.8 ESE 20 28 11 15 1012.9 1012.8 0.0
20/12:30pm 32.2 31.9 19.1 45 8.6 ESE 19 28 10 15 1013.3 1013.2 0.0
20/12:00pm 32.0 31.6 19.3 47 8.3 ESE 20 30 11 16 1013.6 1013.5 0.0
20/11:30am 30.9 30.1 19.3 50 7.6 E 22 35 12 19 1013.9 1013.8 0.0
20/11:00am 30.7 31.2 20.0 52 7.1 E 17 24 9 13 1014.3 1014.2 0.0
20/10:30am 30.1 30.6 20.1 55 6.6 E 17 26 9 14 1014.6 1014.5 0.0
20/10:00am 29.0 29.3 20.7 61 5.5 ESE 20 30 11 16 1014.6 1014.5 0.0
20/09:30am 29.1 30.1 21.1 62 5.3 ESE 17 24 9 13 1014.3 1014.2 0.0
20/09:00am 27.4 29.3 21.4 70 4.0 ESE 13 22 7 12 1014.1 1014.0 0.0
20/08:30am 25.8 28.6 21.5 77 2.9 ESE 9 15 5 8 1014.1 1014.0 0.0
20/08:00am 25.1 28.6 21.8 82 2.2 ESE 6 7 3 4 1013.8 1013.7 0.0
20/07:30am 24.2 27.9 21.5 85 1.8 SE 4 6 2 3 1013.4 1013.3 0.0
20/07:00am 23.6 27.2 21.3 87 1.5 ESE 4 6 2 3 1013.0 1012.9 0.0
20/06:30am 23.5 27.1 21.2 87 1.5 ESE 4 6 2 3 1012.7 1012.6 0.0
20/06:00am 23.6 27.1 21.1 86 1.6 ESE 4 4 2 2 1012.6 1012.5 0.0
20/05:30am 24.0 27.6 21.3 85 1.8 ESE 4 6 2 3 1012.6 1012.5 0.0
20/05:00am 24.1 27.8 21.4 85 1.8 ESE 4 6 2 3 1012.4 1012.3 0.0
20/04:30am 24.3 28.1 21.6 85 1.8 ESE 4 6 2 3 1012.5 1012.4 0.0
20/04:00am 24.5 28.3 21.6 84 1.9 ESE 4 6 2 3 1012.4 1012.3 0.0
20/03:30am 24.8 28.3 21.9 84 1.9 SE 6 7 3 4 1012.4 1012.3 0.0
20/03:00am 24.9 28.8 21.8 83 2.1 SSE 4 6 2 3 1012.7 1012.6 0.0
20/02:30am 25.6 29.9 21.9 80 2.5 SE 2 4 1 2 1013.0 1012.9 0.0
20/02:00am 25.9 30.7 22.2 80 2.5 CALM 0 2 0 1 1013.5 1013.4 0.0
20/01:30am 26.0 30.0 22.1 79 2.6 E 4 6 2 3 1013.6 1013.5 0.0
20/01:00am 26.1 30.2 22.2 79 2.6 E 4 6 2 3 1013.7 1013.6 0.0
20/12:30am 26.1 30.3 22.4 80 2.5 ENE 4 6 2 3 1014.1 1014.0 0.0
20/12:00am 26.1 29.9 22.4 80 2.5 ENE 6 9 3 5 1014.2 1014.1 0.0
 
Date/Time
CST
Temp
°C
App
Temp
°C
Dew
Point
°C
Rel
Hum
%
Delta-T
°C
Wind Press
QNH
hPa
Press
MSL
hPa
Rain since
9am
mm
Dir  Spd
km/h
Gust
km/h
Spd
kts
Gust
kts
19/11:30pm 26.4 30.1 22.5 79 2.6 ENE 7 13 4 7 1014.5 1014.4 0.0
19/11:00pm 26.6 29.5 22.4 78 2.8 E 11 19 6 10 1014.5 1014.4 0.0
19/10:30pm 26.8 29.7 22.4 77 3.0 ENE 11 19 6 10 1014.4 1014.3 0.0
19/10:00pm 26.3 30.3 22.8 81 2.4 ENE 6 7 3 4 1014.3 1014.2 0.0
19/09:30pm 26.5 31.3 22.1 77 3.0 CALM 0 0 0 0 1013.7 1013.6 0.0
19/09:00pm 26.9 31.8 22.3 76 3.1 CALM 0 0 0 0 1013.4 1013.3 0.0
19/08:30pm 27.4 32.2 22.1 73 3.6 CALM 0 0 0 0 1013.1 1013.0 0.0
19/08:00pm 27.7 32.4 22.0 71 3.8 CALM 0 4 0 2 1012.6 1012.5 0.0
19/07:30pm 28.2 32.8 21.7 68 4.4 CALM 0 0 0 0 1012.4 1012.3 0.0
19/07:00pm 29.0 33.5 21.5 64 5.0 CALM 0 0 0 0 1012.2 1012.1 0.0
19/06:30pm 30.1 34.6 21.5 60 5.8 CALM 0 4 0 2 1012.0 1011.9 0.0
19/06:00pm 31.8 34.4 20.1 50 7.8 ENE 6 9 3 5 1011.7 1011.6 0.0
19/05:30pm 32.7 34.9 19.6 46 8.6 ENE 7 13 4 7 1011.3 1011.2 0.0
19/05:00pm 33.4 35.2 19.5 44 9.2 E 9 15 5 8 1011.1 1011.0 0.0
19/04:30pm 33.6 34.7 18.9 41 9.6 E 11 17 6 9 1010.9 1010.8 0.0
19/04:00pm 33.0 34.2 19.1 43 9.1 ESE 11 17 6 9 1010.9 1010.8 0.0
19/03:30pm 33.7 34.8 19.7 43 9.3 ENE 13 24 7 13 1011.1 1011.0 0.0
19/03:00pm 32.9 34.1 19.0 43 9.1 E 11 19 6 10 1011.4 1011.3 0.0
19/02:30pm 33.6 34.8 20.0 44 9.0 E 13 24 7 13 1011.7 1011.6 0.0
19/02:00pm 33.5 34.9 20.3 46 8.8 E 13 20 7 11 1012.1 1012.0 0.0
19/01:30pm 33.3 34.0 19.7 44 9.0 ESE 15 26 8 14 1012.5 1012.4 0.0
19/01:00pm 32.8 33.9 19.7 46 8.7 ESE 13 26 7 14 1012.9 1012.8 0.0
19/12:30pm 32.4 33.4 20.3 48 8.0 E 15 24 8 13 1013.3 1013.2 0.0
19/12:00pm 31.6 32.8 19.9 50 7.7 E 13 20 7 11 1013.7 1013.6 0.0
19/11:30am 31.2 32.2 20.2 52 7.3 ENE 15 24 8 13 1014.1 1014.0 0.0
19/11:00am 30.8 31.5 20.4 54 6.9 E 17 24 9 13 1014.5 1014.4 0.0
19/10:30am 30.7 32.4 20.9 56 6.5 E 13 22 7 12 1014.8 1014.7 0.0
19/10:00am 30.0 30.9 20.8 57 6.1 SE 17 28 9 15 1014.9 1014.8 0.0
19/09:30am 29.4 30.6 21.4 62 5.4 ESE 17 24 9 13 1014.8 1014.7 0.0
19/09:00am 28.7 30.3 21.5 65 4.8 ESE 15 24 8 13 1014.6 1014.5 0.0
19/08:30am 28.0 31.1 22.9 74 3.5 SE 11 17 6 9 1014.0 1013.9 0.0
19/08:00am 25.8 30.1 23.3 86 1.7 SE 6 7 3 4 1013.7 1013.6 0.0
19/07:30am 23.8 28.7 22.4 92 0.9 CALM 0 0 0 0 1013.5 1013.4 0.0
19/07:00am 23.1 27.4 21.9 93 0.8 SE 2 4 1 2 1013.1 1013.0 0.0
19/06:30am 23.3 28.1 22.1 93 0.8 CALM 0 0 0 0 1012.9 1012.8 0.0
19/06:00am 23.6 27.9 22.6 94 0.7 S 4 6 2 3 1012.5 1012.4 0.0
19/05:30am 23.3 27.9 21.7 91 1.1 CALM 0 0 0 0 1012.5 1012.4 0.0
19/05:00am 23.4 28.1 22.0 92 0.9 CALM 0 0 0 0 1012.3 1012.2 0.0
19/04:30am 23.5 28.2 21.9 91 1.1 CALM 0 0 0 0 1012.2 1012.1 0.0
19/04:00am 23.7 28.6 22.3 92 0.9 CALM 0 0 0 0 1012.1 1012.0 0.0
19/03:30am 23.8 28.5 21.9 89 1.3 CALM 0 0 0 0 1012.2 1012.1 0.0
19/03:00am 24.4 29.3 22.3 88 1.4 CALM 0 0 0 0 1012.4 1012.3 0.0
19/02:30am 24.9 30.0 22.6 87 1.5 CALM 0 0 0 0 1012.5 1012.4 0.0
19/02:00am 25.1 30.3 22.8 87 1.6 CALM 0 0 0 0 1012.9 1012.8 0.0
19/01:30am 25.4 30.3 23.1 87 1.6 SSE 2 6 1 3 1013.0 1012.9 0.0
19/01:00am 25.5 30.0 23.0 86 1.7 S 4 6 2 3 1013.2 1013.1 0.0
19/12:30am 25.5 30.3 22.8 85 1.8 S 2 4 1 2 1013.3 1013.2 0.0
19/12:00am 25.9 31.1 22.8 83 2.1 CALM 0 0 0 0 1013.4 1013.3 0.0
 
Date/Time
CST
Temp
°C
App
Temp
°C
Dew
Point
°C
Rel
Hum
%
Delta-T
°C
Wind Press
QNH
hPa
Press
MSL
hPa
Rain since
9am
mm
Dir  Spd
km/h
Gust
km/h
Spd
kts
Gust
kts
18/11:30pm 26.4 31.2 22.9 81 2.4 S 2 4 1 2 1013.3 1013.2 0.0
18/11:00pm 26.9 32.3 23.2 80 2.5 CALM 0 2 0 1 1013.4 1013.3 0.0
18/10:30pm 26.8 32.1 23.1 80 2.5 CALM 0 2 0 1 1013.5 1013.4 0.0
18/10:00pm 26.8 31.9 23.3 81 2.4 S 2 6 1 3 1013.5 1013.4 0.0
18/09:30pm 26.6 31.9 23.1 81 2.4 CALM 0 0 0 0 1013.2 1013.1 0.0
18/09:00pm 26.8 32.0 22.8 79 2.7 CALM 0 0 0 0 1012.9 1012.8 0.0
18/08:30pm 27.9 33.2 23.1 75 3.3 CALM 0 2 0 1 1012.6 1012.5 0.0
18/08:00pm 28.4 33.7 23.1 73 3.6 CALM 0 0 0 0 1012.0 1011.9 0.0
18/07:30pm 28.6 33.8 22.8 71 4.0 CALM 0 0 0 0 1011.4 1011.3 0.0
18/07:00pm 29.6 34.8 22.8 67 4.6 CALM 0 0 0 0 1011.2 1011.1 0.0
18/06:30pm 30.8 35.9 22.7 62 5.5 CALM 0 0 0 0 1010.9 1010.8 0.0
18/06:00pm 31.8 36.0 22.5 58 6.4 NE 4 9 2 5 1010.6 1010.5 0.0
18/05:30pm 33.0 36.6 22.1 52 7.4 ENE 6 9 3 5 1010.3 1010.2 0.0
18/05:00pm 33.0 36.5 22.1 52 7.4 NE 7 11 4 6 1009.9 1009.8 0.0
18/04:30pm 32.7 36.2 22.2 54 7.2 NE 7 15 4 8 1009.9 1009.8 0.0
18/04:00pm 34.5 37.5 20.8 44 9.2 NE 6 15 3 8 1010.0 1009.9 0.0
18/03:30pm 34.0 37.2 20.4 45 9.1 E 4 11 2 6 1010.1 1010.0 0.0
18/03:00pm 33.5 36.5 21.3 48 8.3 NE 7 13 4 7 1010.4 1010.3 0.0
18/02:30pm 34.1 36.3 20.5 45 9.1 NE 9 17 5 9 1010.6 1010.5 0.0
18/02:00pm 34.0 36.2 20.4 45 9.1 E 9 17 5 9 1010.9 1010.8 0.0
18/01:30pm 33.4 35.1 20.2 46 8.8 ENE 11 19 6 10 1011.4 1011.3 0.0
18/01:00pm 33.6 36.3 21.4 48 8.3 ESE 9 20 5 11 1011.9 1011.8 0.0
18/12:30pm 33.1 35.5 21.6 51 7.8 E 11 20 6 11 1012.3 1012.2 0.0
18/12:00pm 32.2 34.5 21.4 53 7.3 ENE 11 19 6 10 1012.6 1012.5 0.0
18/11:30am 31.7 33.3 21.5 54 6.9 E 15 24 8 13 1013.1 1013.0 0.0
18/11:00am 30.7 32.5 21.8 59 6.0 E 15 20 8 11 1013.5 1013.4 0.0
18/10:30am 30.6 32.8 21.9 59 5.9 E 13 22 7 12 1013.8 1013.7 0.0
18/10:00am 29.6 31.4 21.8 63 5.3 E 15 22 8 12 1013.7 1013.6 0.0
18/09:30am 28.9 30.9 22.2 67 4.5 ESE 15 20 8 11 1013.7 1013.6 0.0
18/09:00am 28.1 30.8 22.1 70 4.0 SE 11 19 6 10 1013.5 1013.4 0.0
18/08:30am 26.6 30.0 22.0 76 3.1 SE 7 13 4 7 1013.3 1013.2 0.0
18/08:00am 25.1 28.7 22.0 83 2.1 SE 6 7 3 4 1013.0 1012.9 0.0
18/07:30am 23.3 27.1 21.7 91 1.1 SSE 4 6 2 3 1012.5 1012.4 0.0
18/07:00am 22.6 26.9 21.2 92 0.9 CALM 0 0 0 0 1012.2 1012.1 0.0
18/06:30am 22.7 27.0 21.2 91 1.0 CALM 0 0 0 0 1012.1 1012.0 0.0
18/06:00am 22.9 27.3 21.4 91 1.0 CALM 0 0 0 0 1011.7 1011.6 0.0
18/05:30am 23.2 27.4 21.8 92 0.9 SE 2 4 1 2 1011.6 1011.5 0.0
18/05:00am 23.2 27.7 21.6 91 1.1 CALM 0 0 0 0 1011.5 1011.4 0.0
18/04:30am 23.5 28.0 21.6 89 1.3 CALM 0 0 0 0 1011.5 1011.4 0.0
18/04:00am 23.7 28.4 22.0 90 1.1 CALM 0 0 0 0 1011.4 1011.3 0.0
18/03:30am 24.1 29.0 22.4 90 1.1 CALM 0 2 0 1 1011.4 1011.3 0.0
18/03:00am 24.5 28.8 22.6 89 1.3 ESE 4 6 2 3 1011.5 1011.4 0.0
18/02:30am 24.8 29.1 22.7 88 1.4 SE 4 6 2 3 1011.6 1011.5 0.0
18/02:00am 25.0 29.3 22.7 87 1.6 SE 4 6 2 3 1011.8 1011.7 0.0
18/01:30am 25.5 29.9 22.8 85 1.8 E 4 6 2 3 1011.8 1011.7 0.0
18/01:00am 25.9 30.3 22.8 83 2.1 ESE 4 6 2 3 1012.2 1012.1 0.0
18/12:30am 26.5 30.1 23.0 81 2.4 E 9 15 5 8 1012.3 1012.2 0.0
18/12:00am 26.7 30.9 23.2 81 2.4 E 6 9 3 5 1012.4 1012.3 0.0
 
Date/Time
CST
Temp
°C
App
Temp
°C
Dew
Point
°C
Rel
Hum
%
Delta-T
°C
Wind Press
QNH
hPa
Press
MSL
hPa
Rain since
9am
mm
Dir  Spd
km/h
Gust
km/h
Spd
kts
Gust
kts
17/11:30pm 26.8 31.2 23.5 82 2.3 ESE 6 7 3 4 1012.6 1012.5 0.0
17/11:00pm 27.0 31.8 23.5 81 2.4 ENE 4 6 2 3 1012.7 1012.6 0.0
17/10:30pm 27.1 31.8 23.3 80 2.6 E 4 6 2 3 1012.5 1012.4 0.0
17/10:00pm 27.4 32.1 23.4 79 2.7 E 4 6 2 3 1012.5 1012.4 0.0
17/09:30pm 27.6 32.0 23.4 78 2.9 E 6 9 3 5 1012.3 1012.2 0.0
17/09:00pm 27.7 32.4 23.3 77 3.0 ENE 4 7 2 4 1012.1 1012.0 0.0
17/08:30pm 27.9 32.2 23.3 76 3.1 ENE 6 9 3 5 1011.6 1011.5 0.0

Latest Capital City Observations: Canberra | Sydney | Melbourne | Brisbane | Adelaide | Perth | Hobart | Darwin

Other formats

Comma delimited format used in spreadsheet applications
http://www.bom.gov.au/fwo/IDD60901/IDD60901.94105.axf

JavaScript Object Notation format (JSON) in row-major order
http://www.bom.gov.au/fwo/IDD60901/IDD60901.94105.json

Data quality

Most of these data are generated automatically and are frequently updated. Quality checks on data are not normally performed. It is possible for incorrect values to appear. Refer to information at About Latest Weather Observations and please check the disclaimer before using these data.